AAL371 KPHL-KMCI
Flight info
| Callsign | AAL371 |
|---|---|
| Flight time | N/A |
| Altitude | 38000 |
| Route | MXE PENSY J110 AIR J80 SPI EUING RUDDH3 |
| Aircraft | A321/M-SDE3FGHIRWY/LB1 |
Departure
| Time | 2026-05-04 01:15 |
|---|---|
| Airport | Philadelphia International Airport (KPHL) |
Arrival
| Time | N/A |
|---|---|
| Airport | Kansas City International Airport (KMCI) |
| Time | Latitude | Longitude | Altitude | Speed | Heading |
|---|---|---|---|---|---|
| 2026-05-04 00:45 | 39.87401 | -75.24107 | 24 ft | 0 kts | 28° |
| 2026-05-04 01:08 | 39.87400 | -75.24107 | 22 ft | 1 kts | 28° |
| 2026-05-04 01:08 | 39.87388 | -75.24115 | 4 ft | 3 kts | 25° |
| 2026-05-04 01:09 | 39.87370 | -75.24126 | 22 ft | 2 kts | 25° |
| 2026-05-04 01:09 | 39.87354 | -75.24134 | 24 ft | 3 kts | 345° |
| 2026-05-04 01:09 | 39.87344 | -75.24127 | 22 ft | 3 kts | 274° |
| 2026-05-04 01:09 | 39.87345 | -75.24112 | 22 ft | 1 kts | 255° |
| 2026-05-04 01:10 | 39.87349 | -75.24093 | 22 ft | 2 kts | 255° |
| 2026-05-04 01:10 | 39.87349 | -75.24089 | 25 ft | 0 kts | 255° |
| 2026-05-04 01:12 | 39.87349 | -75.24092 | 22 ft | 2 kts | 255° |
| 2026-05-04 01:12 | 39.87340 | -75.24134 | 22 ft | 8 kts | 255° |
| 2026-05-04 01:12 | 39.87289 | -75.24186 | 23 ft | 13 kts | 168° |
| 2026-05-04 01:12 | 39.87194 | -75.24124 | 24 ft | 17 kts | 151° |
| 2026-05-04 01:13 | 39.87074 | -75.24072 | 23 ft | 20 kts | 165° |
| 2026-05-04 01:13 | 39.86942 | -75.24028 | 23 ft | 13 kts | 164° |
| 2026-05-04 01:13 | 39.86903 | -75.23961 | 23 ft | 10 kts | 109° |
| 2026-05-04 01:13 | 39.86841 | -75.23920 | 22 ft | 11 kts | 169° |
| 2026-05-04 01:14 | 39.86787 | -75.23983 | 22 ft | 14 kts | 257° |
| 2026-05-04 01:14 | 39.86708 | -75.24379 | 23 ft | 83 kts | 255° |
| 2026-05-04 01:14 | 39.86504 | -75.25407 | 25 ft | 147 kts | 255° |
| 2026-05-04 01:14 | 39.86223 | -75.26797 | 544 ft | 153 kts | 254° |
| 2026-05-04 01:15 | 39.85945 | -75.28078 | 1458 ft | 146 kts | 257° |
| 2026-05-04 01:15 | 39.85675 | -75.29382 | 1991 ft | 158 kts | 258° |
| 2026-05-04 01:15 | 39.85718 | -75.30867 | 2275 ft | 175 kts | 285° |
| 2026-05-04 01:15 | 39.86037 | -75.32474 | 2621 ft | 192 kts | 284° |
| 2026-05-04 01:16 | 39.86348 | -75.34245 | 3006 ft | 212 kts | 283° |
| 2026-05-04 01:16 | 39.86667 | -75.36227 | 3445 ft | 234 kts | 283° |
| 2026-05-04 01:16 | 39.87010 | -75.38346 | 4152 ft | 243 kts | 283° |
| 2026-05-04 01:16 | 39.87365 | -75.40493 | 5029 ft | 246 kts | 283° |
| 2026-05-04 01:17 | 39.87732 | -75.42687 | 5948 ft | 248 kts | 283° |
| 2026-05-04 01:17 | 39.87977 | -75.44149 | 6552 ft | 249 kts | 283° |
| 2026-05-04 01:17 | 39.88471 | -75.47097 | 7640 ft | 254 kts | 284° |
| 2026-05-04 01:17 | 39.88723 | -75.48603 | 8183 ft | 257 kts | 284° |
| 2026-05-04 01:18 | 39.89108 | -75.50902 | 8977 ft | 262 kts | 285° |
| 2026-05-04 01:18 | 39.89501 | -75.53250 | 9749 ft | 268 kts | 285° |
| 2026-05-04 01:18 | 39.89902 | -75.55658 | 10353 ft | 280 kts | 285° |
| 2026-05-04 01:18 | 39.90337 | -75.58242 | 10591 ft | 303 kts | 285° |
| 2026-05-04 01:19 | 39.90806 | -75.61030 | 10777 ft | 326 kts | 284° |
| 2026-05-04 01:19 | 39.91298 | -75.63955 | 11118 ft | 341 kts | 284° |
| 2026-05-04 01:19 | 39.91730 | -75.67013 | 11795 ft | 346 kts | 277° |
| 2026-05-04 01:19 | 39.91763 | -75.70172 | 12569 ft | 350 kts | 270° |
| 2026-05-04 01:20 | 39.91693 | -75.73359 | 13376 ft | 351 kts | 270° |
| 2026-05-04 01:20 | 39.91629 | -75.76507 | 14137 ft | 352 kts | 270° |
| 2026-05-04 01:20 | 39.91565 | -75.79709 | 14838 ft | 354 kts | 270° |
| 2026-05-04 01:20 | 39.91500 | -75.82933 | 15537 ft | 356 kts | 270° |
| 2026-05-04 01:21 | 39.91434 | -75.86171 | 16243 ft | 359 kts | 270° |
| 2026-05-04 01:21 | 39.91368 | -75.89428 | 16961 ft | 361 kts | 270° |
| 2026-05-04 01:21 | 39.91300 | -75.92714 | 17671 ft | 363 kts | 270° |
| 2026-05-04 01:21 | 39.91230 | -75.95978 | 18352 ft | 365 kts | 270° |
| 2026-05-04 01:22 | 39.91157 | -75.99305 | 18960 ft | 367 kts | 270° |
| 2026-05-04 01:22 | 39.91081 | -76.02656 | 19572 ft | 369 kts | 270° |
| 2026-05-04 01:22 | 39.91005 | -76.06011 | 20175 ft | 370 kts | 270° |
| 2026-05-04 01:22 | 39.90931 | -76.09328 | 20777 ft | 372 kts | 270° |
| 2026-05-04 01:23 | 39.90855 | -76.12714 | 21374 ft | 373 kts | 270° |
| 2026-05-04 01:23 | 39.90776 | -76.16102 | 21940 ft | 375 kts | 270° |
| 2026-05-04 01:23 | 39.90720 | -76.19507 | 22492 ft | 376 kts | 271° |
| 2026-05-04 01:23 | 39.90784 | -76.22929 | 23042 ft | 378 kts | 274° |
| 2026-05-04 01:24 | 39.90934 | -76.26317 | 23578 ft | 379 kts | 275° |
| 2026-05-04 01:24 | 39.91129 | -76.29752 | 24036 ft | 381 kts | 275° |
| 2026-05-04 01:24 | 39.91328 | -76.33204 | 24511 ft | 382 kts | 275° |
| 2026-05-04 01:24 | 39.91512 | -76.36660 | 24981 ft | 383 kts | 275° |
| 2026-05-04 01:25 | 39.91676 | -76.40136 | 25442 ft | 384 kts | 275° |
| 2026-05-04 01:25 | 39.91827 | -76.43627 | 25877 ft | 386 kts | 274° |
| 2026-05-04 01:25 | 39.91969 | -76.47083 | 26321 ft | 387 kts | 274° |
| 2026-05-04 01:25 | 39.92108 | -76.50586 | 26760 ft | 388 kts | 274° |
| 2026-05-04 01:26 | 39.92246 | -76.54122 | 27177 ft | 390 kts | 274° |
| 2026-05-04 01:26 | 39.92383 | -76.57661 | 27603 ft | 391 kts | 274° |
| 2026-05-04 01:26 | 39.92520 | -76.61168 | 28028 ft | 393 kts | 274° |
| 2026-05-04 01:26 | 39.92661 | -76.64738 | 28444 ft | 393 kts | 274° |
| 2026-05-04 01:27 | 39.92801 | -76.68297 | 29020 ft | 391 kts | 274° |
| 2026-05-04 01:27 | 39.92939 | -76.71827 | 29626 ft | 388 kts | 274° |
| 2026-05-04 01:27 | 39.93073 | -76.75287 | 30196 ft | 385 kts | 274° |
| 2026-05-04 01:27 | 39.93205 | -76.78770 | 30647 ft | 384 kts | 274° |
| 2026-05-04 01:28 | 39.93338 | -76.82250 | 31032 ft | 384 kts | 274° |
| 2026-05-04 01:28 | 39.93473 | -76.85736 | 31384 ft | 385 kts | 274° |
| 2026-05-04 01:28 | 39.93607 | -76.89188 | 31711 ft | 386 kts | 274° |
| 2026-05-04 01:28 | 39.93743 | -76.92697 | 32039 ft | 388 kts | 274° |
| 2026-05-04 01:29 | 39.93875 | -76.96216 | 32381 ft | 389 kts | 273° |
| 2026-05-04 01:29 | 39.94005 | -76.99748 | 32717 ft | 390 kts | 273° |
| 2026-05-04 01:29 | 39.94132 | -77.03281 | 33050 ft | 391 kts | 273° |
| 2026-05-04 01:29 | 39.94259 | -77.06831 | 33385 ft | 392 kts | 273° |
| 2026-05-04 01:30 | 39.94385 | -77.10339 | 33710 ft | 392 kts | 273° |
| 2026-05-04 01:30 | 39.94514 | -77.13907 | 34035 ft | 393 kts | 272° |
| 2026-05-04 01:30 | 39.94642 | -77.17477 | 34306 ft | 394 kts | 272° |
| 2026-05-04 01:30 | 39.94768 | -77.21060 | 34584 ft | 394 kts | 272° |
| 2026-05-04 01:31 | 39.94891 | -77.24589 | 34864 ft | 394 kts | 273° |
| 2026-05-04 01:31 | 39.95013 | -77.28165 | 35127 ft | 395 kts | 273° |
| 2026-05-04 01:31 | 39.95136 | -77.31746 | 35409 ft | 395 kts | 272° |
| 2026-05-04 01:31 | 39.95257 | -77.35333 | 35683 ft | 395 kts | 272° |
| 2026-05-04 01:32 | 39.95374 | -77.38918 | 35966 ft | 395 kts | 272° |
| 2026-05-04 01:32 | 39.95490 | -77.42501 | 36255 ft | 395 kts | 272° |
| 2026-05-04 01:32 | 39.95606 | -77.46043 | 36518 ft | 395 kts | 272° |
| 2026-05-04 01:32 | 39.95725 | -77.49630 | 36781 ft | 395 kts | 272° |
| 2026-05-04 01:33 | 39.95844 | -77.53208 | 37029 ft | 395 kts | 272° |
| 2026-05-04 01:33 | 39.95961 | -77.56793 | 37279 ft | 396 kts | 272° |
| 2026-05-04 01:33 | 39.96071 | -77.60383 | 37513 ft | 396 kts | 272° |
| 2026-05-04 01:33 | 39.96175 | -77.63932 | 37735 ft | 396 kts | 272° |
| 2026-05-04 01:34 | 39.96280 | -77.67519 | 37951 ft | 396 kts | 272° |
| 2026-05-04 01:34 | 39.96492 | -77.74720 | 38038 ft | 396 kts | 272° |
| 2026-05-04 01:35 | 39.96697 | -77.81865 | 38039 ft | 395 kts | 272° |
| 2026-05-04 01:35 | 39.96902 | -77.89000 | 38044 ft | 396 kts | 272° |
| 2026-05-04 01:36 | 39.97119 | -77.96186 | 38050 ft | 396 kts | 272° |
| 2026-05-04 01:36 | 39.97337 | -78.03342 | 38041 ft | 396 kts | 272° |
| 2026-05-04 01:37 | 39.97542 | -78.10541 | 38040 ft | 397 kts | 272° |
| 2026-05-04 01:37 | 39.97737 | -78.17748 | 38046 ft | 397 kts | 271° |
| 2026-05-04 01:38 | 39.97926 | -78.24920 | 38048 ft | 397 kts | 271° |
| 2026-05-04 01:38 | 39.98104 | -78.32090 | 38056 ft | 397 kts | 271° |
| 2026-05-04 01:39 | 39.98278 | -78.39317 | 38056 ft | 398 kts | 271° |
| 2026-05-04 01:39 | 39.98454 | -78.46526 | 38064 ft | 398 kts | 271° |
| 2026-05-04 01:40 | 39.98630 | -78.53725 | 38068 ft | 398 kts | 271° |
| 2026-05-04 01:40 | 39.98799 | -78.60922 | 38069 ft | 398 kts | 271° |
| 2026-05-04 01:41 | 39.98960 | -78.68157 | 38073 ft | 398 kts | 271° |
| 2026-05-04 01:41 | 39.99117 | -78.75354 | 38073 ft | 398 kts | 271° |
| 2026-05-04 01:42 | 39.99268 | -78.82575 | 38070 ft | 398 kts | 271° |
| 2026-05-04 01:42 | 39.99414 | -78.89773 | 38076 ft | 398 kts | 271° |
| 2026-05-04 01:43 | 39.99561 | -78.97004 | 38077 ft | 398 kts | 271° |
| 2026-05-04 01:43 | 39.99699 | -79.04181 | 38084 ft | 399 kts | 271° |
| 2026-05-04 01:44 | 39.99835 | -79.11436 | 38087 ft | 399 kts | 271° |
| 2026-05-04 01:44 | 39.99966 | -79.18682 | 38085 ft | 399 kts | 271° |
| 2026-05-04 01:45 | 40.00087 | -79.25903 | 38079 ft | 399 kts | 271° |
| 2026-05-04 01:45 | 40.00267 | -79.36794 | 38073 ft | 400 kts | 271° |
| 2026-05-04 01:46 | 40.00379 | -79.44015 | 38080 ft | 400 kts | 271° |
| 2026-05-04 01:46 | 40.00493 | -79.51292 | 38071 ft | 400 kts | 271° |
| 2026-05-04 01:47 | 40.00603 | -79.58520 | 38061 ft | 401 kts | 271° |
| 2026-05-04 01:47 | 40.00707 | -79.65808 | 38041 ft | 401 kts | 271° |
| 2026-05-04 01:48 | 40.00801 | -79.73099 | 38048 ft | 402 kts | 271° |
| 2026-05-04 01:48 | 40.00895 | -79.80345 | 38055 ft | 402 kts | 271° |
| 2026-05-04 01:49 | 40.00980 | -79.87647 | 38051 ft | 402 kts | 271° |
| 2026-05-04 01:49 | 40.01064 | -79.94927 | 38052 ft | 403 kts | 271° |
| 2026-05-04 01:50 | 40.01151 | -80.02262 | 38057 ft | 403 kts | 271° |
| 2026-05-04 01:50 | 40.01219 | -80.09544 | 38059 ft | 403 kts | 271° |
| 2026-05-04 01:51 | 40.01285 | -80.16865 | 38072 ft | 403 kts | 271° |
| 2026-05-04 01:51 | 40.01355 | -80.24189 | 38074 ft | 403 kts | 271° |
| 2026-05-04 01:52 | 40.01421 | -80.31523 | 38066 ft | 403 kts | 271° |
| 2026-05-04 01:52 | 40.01476 | -80.38801 | 38065 ft | 403 kts | 271° |
| 2026-05-04 01:53 | 40.01529 | -80.46094 | 38069 ft | 403 kts | 271° |
| 2026-05-04 01:53 | 40.01574 | -80.53435 | 38058 ft | 403 kts | 271° |
| 2026-05-04 01:54 | 40.01617 | -80.60721 | 38065 ft | 403 kts | 271° |
| 2026-05-04 01:54 | 40.01656 | -80.68051 | 38061 ft | 402 kts | 271° |
| 2026-05-04 01:55 | 40.01689 | -80.75313 | 38059 ft | 402 kts | 271° |
| 2026-05-04 01:55 | 40.01713 | -80.82629 | 38063 ft | 402 kts | 271° |
| 2026-05-04 01:56 | 40.01646 | -80.89896 | 38062 ft | 402 kts | 270° |
| 2026-05-04 01:56 | 40.01520 | -80.97192 | 38062 ft | 402 kts | 270° |
| 2026-05-04 01:57 | 40.01400 | -81.04489 | 38063 ft | 401 kts | 270° |
| 2026-05-04 01:57 | 40.01293 | -81.11736 | 38063 ft | 401 kts | 270° |
| 2026-05-04 01:58 | 40.01189 | -81.18988 | 38063 ft | 401 kts | 270° |
| 2026-05-04 01:58 | 40.01077 | -81.26272 | 38066 ft | 401 kts | 270° |
| 2026-05-04 01:59 | 40.00939 | -81.33570 | 38067 ft | 401 kts | 270° |
| 2026-05-04 01:59 | 40.00783 | -81.40818 | 38064 ft | 401 kts | 270° |